sensor_id;sensor_type;location;lat;lon;timestamp;P1;durP1;ratioP1;P2;durP2;ratioP2
8584;SDS011;7180;52.742;11.420;2023-03-14T00:00:32;12.33;;;11.53;;
8584;SDS011;7180;52.742;11.420;2023-03-14T00:02:57;12.40;;;11.70;;
8584;SDS011;7180;52.742;11.420;2023-03-14T00:05:22;12.60;;;11.80;;
8584;SDS011;7180;52.742;11.420;2023-03-14T00:07:48;12.60;;;11.80;;
8584;SDS011;7180;52.742;11.420;2023-03-14T00:10:13;12.60;;;11.80;;
8584;SDS011;7180;52.742;11.420;2023-03-14T00:12:40;12.27;;;11.57;;
8584;SDS011;7180;52.742;11.420;2023-03-14T00:15:07;12.60;;;11.90;;
8584;SDS011;7180;52.742;11.420;2023-03-14T00:17:33;12.73;;;11.93;;
8584;SDS011;7180;52.742;11.420;2023-03-14T00:19:59;12.20;;;11.40;;
8584;SDS011;7180;52.742;11.420;2023-03-14T00:22:33;12.77;;;12.07;;
8584;SDS011;7180;52.742;11.420;2023-03-14T00:24:59;13.17;;;12.37;;
8584;SDS011;7180;52.742;11.420;2023-03-14T00:27:25;12.50;;;11.80;;
8584;SDS011;7180;52.742;11.420;2023-03-14T00:29:50;12.43;;;11.73;;
8584;SDS011;7180;52.742;11.420;2023-03-14T00:32:15;12.50;;;11.70;;
8584;SDS011;7180;52.742;11.420;2023-03-14T00:34:41;12.40;;;11.60;;
8584;SDS011;7180;52.742;11.420;2023-03-14T00:37:06;12.17;;;11.37;;
8584;SDS011;7180;52.742;11.420;2023-03-14T00:39:31;11.87;;;11.13;;
8584;SDS011;7180;52.742;11.420;2023-03-14T00:41:57;12.60;;;11.90;;
8584;SDS011;7180;52.742;11.420;2023-03-14T00:44:22;12.00;;;11.40;;
8584;SDS011;7180;52.742;11.420;2023-03-14T00:46:47;12.10;;;11.40;;
8584;SDS011;7180;52.742;11.420;2023-03-14T00:49:13;12.07;;;11.37;;
8584;SDS011;7180;52.742;11.420;2023-03-14T00:51:38;11.70;;;11.00;;
8584;SDS011;7180;52.742;11.420;2023-03-14T00:54:03;12.43;;;11.73;;
8584;SDS011;7180;52.742;11.420;2023-03-14T00:56:28;12.97;;;11.97;;
8584;SDS011;7180;52.742;11.420;2023-03-14T00:58:54;11.93;;;11.17;;
8584;SDS011;7180;52.742;11.420;2023-03-14T01:01:20;12.07;;;11.20;;
8584;SDS011;7180;52.742;11.420;2023-03-14T01:03:45;12.17;;;11.57;;
8584;SDS011;7180;52.742;11.420;2023-03-14T01:06:15;12.10;;;11.33;;
8584;SDS011;7180;52.742;11.420;2023-03-14T01:08:42;12.60;;;11.80;;
8584;SDS011;7180;52.742;11.420;2023-03-14T01:11:09;12.90;;;12.10;;
8584;SDS011;7180;52.742;11.420;2023-03-14T01:13:36;12.33;;;11.63;;
8584;SDS011;7180;52.742;11.420;2023-03-14T01:16:03;12.23;;;11.53;;
8584;SDS011;7180;52.742;11.420;2023-03-14T01:18:30;12.40;;;11.70;;
8584;SDS011;7180;52.742;11.420;2023-03-14T01:20:56;12.33;;;11.63;;
8584;SDS011;7180;52.742;11.420;2023-03-14T01:23:22;12.30;;;11.60;;
8584;SDS011;7180;52.742;11.420;2023-03-14T01:25:47;12.33;;;11.53;;
8584;SDS011;7180;52.742;11.420;2023-03-14T01:28:12;11.97;;;11.27;;
8584;SDS011;7180;52.742;11.420;2023-03-14T01:30:37;12.27;;;11.57;;
8584;SDS011;7180;52.742;11.420;2023-03-14T01:33:03;12.50;;;11.70;;
8584;SDS011;7180;52.742;11.420;2023-03-14T01:35:28;13.37;;;12.57;;
8584;SDS011;7180;52.742;11.420;2023-03-14T01:37:53;13.13;;;12.23;;
8584;SDS011;7180;52.742;11.420;2023-03-14T01:40:18;12.40;;;11.60;;
8584;SDS011;7180;52.742;11.420;2023-03-14T01:42:45;12.23;;;11.53;;
8584;SDS011;7180;52.742;11.420;2023-03-14T01:45:53;12.07;;;11.37;;
8584;SDS011;7180;52.742;11.420;2023-03-14T01:48:21;12.53;;;11.70;;
8584;SDS011;7180;52.742;11.420;2023-03-14T01:50:46;12.50;;;11.63;;
8584;SDS011;7180;52.742;11.420;2023-03-14T01:53:12;12.80;;;12.10;;
8584;SDS011;7180;52.742;11.420;2023-03-14T01:55:38;13.00;;;12.20;;
8584;SDS011;7180;52.742;11.420;2023-03-14T01:58:04;12.20;;;11.50;;
8584;SDS011;7180;52.742;11.420;2023-03-14T02:00:30;12.13;;;11.43;;
8584;SDS011;7180;52.742;11.420;2023-03-14T02:02:56;12.50;;;11.80;;
8584;SDS011;7180;52.742;11.420;2023-03-14T02:05:34;12.30;;;11.50;;
8584;SDS011;7180;52.742;11.420;2023-03-14T02:08:04;11.70;;;10.90;;
8584;SDS011;7180;52.742;11.420;2023-03-14T02:10:32;12.47;;;11.67;;
8584;SDS011;7180;52.742;11.420;2023-03-14T02:13:03;12.33;;;11.57;;
8584;SDS011;7180;52.742;11.420;2023-03-14T02:15:29;12.03;;;11.33;;
8584;SDS011;7180;52.742;11.420;2023-03-14T02:17:55;11.60;;;11.00;;
8584;SDS011;7180;52.742;11.420;2023-03-14T02:22:49;12.13;;;11.43;;
8584;SDS011;7180;52.742;11.420;2023-03-14T02:25:31;12.17;;;11.47;;
8584;SDS011;7180;52.742;11.420;2023-03-14T02:28:15;12.07;;;11.27;;
8584;SDS011;7180;52.742;11.420;2023-03-14T02:30:41;12.07;;;11.37;;
8584;SDS011;7180;52.742;11.420;2023-03-14T02:33:08;12.00;;;11.27;;
8584;SDS011;7180;52.742;11.420;2023-03-14T02:35:43;11.80;;;10.90;;
8584;SDS011;7180;52.742;11.420;2023-03-14T02:38:17;11.57;;;10.77;;
8584;SDS011;7180;52.742;11.420;2023-03-14T02:40:47;11.70;;;11.00;;
8584;SDS011;7180;52.742;11.420;2023-03-14T02:43:12;11.30;;;10.70;;
8584;SDS011;7180;52.742;11.420;2023-03-14T02:45:42;11.37;;;10.73;;
8584;SDS011;7180;52.742;11.420;2023-03-14T02:48:15;11.53;;;10.83;;
8584;SDS011;7180;52.742;11.420;2023-03-14T02:50:45;12.30;;;11.50;;
8584;SDS011;7180;52.742;11.420;2023-03-14T02:53:17;11.73;;;11.03;;
8584;SDS011;7180;52.742;11.420;2023-03-14T02:55:46;11.03;;;10.43;;
8584;SDS011;7180;52.742;11.420;2023-03-14T02:58:12;11.20;;;10.60;;
8584;SDS011;7180;52.742;11.420;2023-03-14T03:00:38;11.60;;;10.90;;
8584;SDS011;7180;52.742;11.420;2023-03-14T03:03:03;10.83;;;10.23;;
8584;SDS011;7180;52.742;11.420;2023-03-14T03:05:30;10.90;;;10.30;;
8584;SDS011;7180;52.742;11.420;2023-03-14T03:07:56;10.43;;;9.83;;
8584;SDS011;7180;52.742;11.420;2023-03-14T03:10:22;10.27;;;9.77;;
8584;SDS011;7180;52.742;11.420;2023-03-14T03:12:47;11.30;;;10.70;;
8584;SDS011;7180;52.742;11.420;2023-03-14T03:15:12;11.00;;;10.30;;
8584;SDS011;7180;52.742;11.420;2023-03-14T03:17:37;10.63;;;10.10;;
8584;SDS011;7180;52.742;11.420;2023-03-14T03:20:03;10.70;;;10.10;;
8584;SDS011;7180;52.742;11.420;2023-03-14T03:22:29;10.70;;;10.07;;
8584;SDS011;7180;52.742;11.420;2023-03-14T03:24:55;10.97;;;10.27;;
8584;SDS011;7180;52.742;11.420;2023-03-14T03:27:20;10.90;;;10.20;;
8584;SDS011;7180;52.742;11.420;2023-03-14T03:29:45;10.37;;;9.80;;
8584;SDS011;7180;52.742;11.420;2023-03-14T03:32:11;10.57;;;9.97;;
8584;SDS011;7180;52.742;11.420;2023-03-14T03:34:36;11.23;;;10.53;;
8584;SDS011;7180;52.742;11.420;2023-03-14T03:37:01;10.43;;;9.87;;
8584;SDS011;7180;52.742;11.420;2023-03-14T03:39:26;10.20;;;9.40;;
8584;SDS011;7180;52.742;11.420;2023-03-14T03:41:52;9.90;;;9.40;;
8584;SDS011;7180;52.742;11.420;2023-03-14T03:44:17;10.10;;;9.57;;
8584;SDS011;7180;52.742;11.420;2023-03-14T03:46:42;10.27;;;9.63;;
8584;SDS011;7180;52.742;11.420;2023-03-14T03:49:07;9.87;;;9.23;;
8584;SDS011;7180;52.742;11.420;2023-03-14T03:51:33;9.83;;;9.30;;
8584;SDS011;7180;52.742;11.420;2023-03-14T03:53:58;10.37;;;9.80;;
8584;SDS011;7180;52.742;11.420;2023-03-14T03:56:23;10.00;;;9.50;;
8584;SDS011;7180;52.742;11.420;2023-03-14T03:58:48;10.07;;;9.47;;
8584;SDS011;7180;52.742;11.420;2023-03-14T04:01:14;10.07;;;9.47;;
8584;SDS011;7180;52.742;11.420;2023-03-14T04:03:39;9.70;;;9.10;;
8584;SDS011;7180;52.742;11.420;2023-03-14T04:06:06;10.10;;;9.60;;
8584;SDS011;7180;52.742;11.420;2023-03-14T04:08:33;10.10;;;9.40;;
8584;SDS011;7180;52.742;11.420;2023-03-14T04:10:59;9.80;;;9.20;;
8584;SDS011;7180;52.742;11.420;2023-03-14T04:13:26;9.33;;;8.80;;
8584;SDS011;7180;52.742;11.420;2023-03-14T04:15:52;9.90;;;9.23;;
8584;SDS011;7180;52.742;11.420;2023-03-14T04:18:18;10.33;;;9.73;;
8584;SDS011;7180;52.742;11.420;2023-03-14T04:20:44;10.57;;;9.87;;
8584;SDS011;7180;52.742;11.420;2023-03-14T04:23:10;9.80;;;9.30;;
8584;SDS011;7180;52.742;11.420;2023-03-14T04:25:35;9.90;;;9.30;;
8584;SDS011;7180;52.742;11.420;2023-03-14T04:28:01;9.77;;;9.20;;
8584;SDS011;7180;52.742;11.420;2023-03-14T04:30:26;10.07;;;9.57;;
8584;SDS011;7180;52.742;11.420;2023-03-14T04:32:52;9.87;;;9.27;;
8584;SDS011;7180;52.742;11.420;2023-03-14T04:35:17;9.43;;;8.93;;
8584;SDS011;7180;52.742;11.420;2023-03-14T04:37:42;9.33;;;8.83;;
8584;SDS011;7180;52.742;11.420;2023-03-14T04:40:08;9.87;;;9.17;;
8584;SDS011;7180;52.742;11.420;2023-03-14T04:42:34;9.80;;;9.20;;
8584;SDS011;7180;52.742;11.420;2023-03-14T04:44:59;9.80;;;9.30;;
8584;SDS011;7180;52.742;11.420;2023-03-14T04:47:25;10.00;;;9.30;;
8584;SDS011;7180;52.742;11.420;2023-03-14T04:49:50;9.60;;;9.10;;
8584;SDS011;7180;52.742;11.420;2023-03-14T04:52:16;9.90;;;9.30;;
8584;SDS011;7180;52.742;11.420;2023-03-14T04:54:41;9.67;;;9.17;;
8584;SDS011;7180;52.742;11.420;2023-03-14T04:57:06;10.33;;;9.73;;
8584;SDS011;7180;52.742;11.420;2023-03-14T04:59:31;10.03;;;9.20;;
8584;SDS011;7180;52.742;11.420;2023-03-14T05:01:57;10.57;;;9.80;;
8584;SDS011;7180;52.742;11.420;2023-03-14T05:04:22;9.90;;;9.30;;
8584;SDS011;7180;52.742;11.420;2023-03-14T05:06:47;9.77;;;9.20;;
8584;SDS011;7180;52.742;11.420;2023-03-14T05:09:12;9.70;;;9.07;;
8584;SDS011;7180;52.742;11.420;2023-03-14T05:11:38;10.53;;;9.70;;
8584;SDS011;7180;52.742;11.420;2023-03-14T05:14:03;9.53;;;8.93;;
8584;SDS011;7180;52.742;11.420;2023-03-14T05:16:28;10.00;;;9.40;;
8584;SDS011;7180;52.742;11.420;2023-03-14T05:18:54;9.70;;;9.10;;
8584;SDS011;7180;52.742;11.420;2023-03-14T05:21:19;9.40;;;8.87;;
8584;SDS011;7180;52.742;11.420;2023-03-14T05:23:44;9.00;;;8.40;;
8584;SDS011;7180;52.742;11.420;2023-03-14T05:26:09;9.33;;;8.77;;
8584;SDS011;7180;52.742;11.420;2023-03-14T05:28:35;9.73;;;9.03;;
8584;SDS011;7180;52.742;11.420;2023-03-14T05:31:00;9.80;;;9.30;;
8584;SDS011;7180;52.742;11.420;2023-03-14T05:33:25;10.03;;;9.53;;
8584;SDS011;7180;52.742;11.420;2023-03-14T05:35:50;9.50;;;9.00;;
8584;SDS011;7180;52.742;11.420;2023-03-14T05:38:16;9.50;;;9.00;;
8584;SDS011;7180;52.742;11.420;2023-03-14T05:40:41;9.90;;;9.30;;
8584;SDS011;7180;52.742;11.420;2023-03-14T05:43:06;9.57;;;8.97;;
8584;SDS011;7180;52.742;11.420;2023-03-14T05:45:33;9.57;;;9.07;;
8584;SDS011;7180;52.742;11.420;2023-03-14T05:47:59;9.47;;;8.87;;
8584;SDS011;7180;52.742;11.420;2023-03-14T05:50:24;9.13;;;8.67;;
8584;SDS011;7180;52.742;11.420;2023-03-14T05:52:50;9.73;;;9.13;;
8584;SDS011;7180;52.742;11.420;2023-03-14T05:55:15;10.23;;;9.40;;
8584;SDS011;7180;52.742;11.420;2023-03-14T05:57:40;9.47;;;8.97;;
8584;SDS011;7180;52.742;11.420;2023-03-14T06:00:06;9.23;;;8.83;;
8584;SDS011;7180;52.742;11.420;2023-03-14T06:02:31;9.90;;;9.30;;
8584;SDS011;7180;52.742;11.420;2023-03-14T06:04:56;9.70;;;9.10;;
8584;SDS011;7180;52.742;11.420;2023-03-14T06:07:22;9.57;;;9.07;;
8584;SDS011;7180;52.742;11.420;2023-03-14T06:09:47;8.90;;;8.40;;
8584;SDS011;7180;52.742;11.420;2023-03-14T06:12:12;9.50;;;9.00;;
8584;SDS011;7180;52.742;11.420;2023-03-14T06:14:37;10.00;;;9.30;;
8584;SDS011;7180;52.742;11.420;2023-03-14T06:17:03;9.50;;;9.00;;
8584;SDS011;7180;52.742;11.420;2023-03-14T06:19:28;9.43;;;8.63;;
8584;SDS011;7180;52.742;11.420;2023-03-14T06:21:53;9.47;;;8.77;;
8584;SDS011;7180;52.742;11.420;2023-03-14T06:24:19;9.23;;;8.73;;
8584;SDS011;7180;52.742;11.420;2023-03-14T06:26:44;8.90;;;8.40;;
8584;SDS011;7180;52.742;11.420;2023-03-14T06:29:09;9.03;;;8.53;;
8584;SDS011;7180;52.742;11.420;2023-03-14T06:31:35;9.20;;;8.70;;
8584;SDS011;7180;52.742;11.420;2023-03-14T06:34:00;9.47;;;8.83;;
8584;SDS011;7180;52.742;11.420;2023-03-14T06:36:26;9.43;;;8.93;;
8584;SDS011;7180;52.742;11.420;2023-03-14T06:38:51;9.27;;;8.77;;
8584;SDS011;7180;52.742;11.420;2023-03-14T06:41:16;9.67;;;9.07;;
8584;SDS011;7180;52.742;11.420;2023-03-14T06:43:42;9.57;;;8.97;;
8584;SDS011;7180;52.742;11.420;2023-03-14T06:46:07;9.43;;;8.93;;
8584;SDS011;7180;52.742;11.420;2023-03-14T06:48:32;8.97;;;8.57;;
8584;SDS011;7180;52.742;11.420;2023-03-14T06:50:58;9.73;;;9.20;;
8584;SDS011;7180;52.742;11.420;2023-03-14T06:53:23;10.20;;;9.50;;
8584;SDS011;7180;52.742;11.420;2023-03-14T06:55:48;9.67;;;9.17;;
8584;SDS011;7180;52.742;11.420;2023-03-14T06:58:14;8.73;;;8.23;;
8584;SDS011;7180;52.742;11.420;2023-03-14T07:00:39;9.30;;;8.60;;
8584;SDS011;7180;52.742;11.420;2023-03-14T07:03:05;9.60;;;9.10;;
8584;SDS011;7180;52.742;11.420;2023-03-14T07:05:30;9.80;;;9.20;;
8584;SDS011;7180;52.742;11.420;2023-03-14T07:07:55;10.00;;;9.50;;
8584;SDS011;7180;52.742;11.420;2023-03-14T07:10:21;9.60;;;9.00;;
8584;SDS011;7180;52.742;11.420;2023-03-14T07:12:46;9.20;;;8.50;;
8584;SDS011;7180;52.742;11.420;2023-03-14T07:15:12;9.60;;;9.00;;
8584;SDS011;7180;52.742;11.420;2023-03-14T07:17:37;9.60;;;9.00;;
8584;SDS011;7180;52.742;11.420;2023-03-14T07:20:02;9.53;;;8.93;;
8584;SDS011;7180;52.742;11.420;2023-03-14T07:22:29;9.67;;;9.17;;
8584;SDS011;7180;52.742;11.420;2023-03-14T07:24:54;9.80;;;9.30;;
8584;SDS011;7180;52.742;11.420;2023-03-14T07:27:20;9.80;;;9.30;;
8584;SDS011;7180;52.742;11.420;2023-03-14T07:29:45;9.67;;;9.17;;
8584;SDS011;7180;52.742;11.420;2023-03-14T07:32:10;9.00;;;8.40;;
8584;SDS011;7180;52.742;11.420;2023-03-14T07:34:39;9.77;;;9.23;;
8584;SDS011;7180;52.742;11.420;2023-03-14T07:37:05;9.63;;;9.13;;
8584;SDS011;7180;52.742;11.420;2023-03-14T07:39:30;10.00;;;9.30;;
8584;SDS011;7180;52.742;11.420;2023-03-14T07:41:55;10.13;;;9.43;;
8584;SDS011;7180;52.742;11.420;2023-03-14T07:44:21;10.17;;;9.37;;
8584;SDS011;7180;52.742;11.420;2023-03-14T07:46:46;9.83;;;9.23;;
8584;SDS011;7180;52.742;11.420;2023-03-14T07:49:11;9.87;;;9.27;;
8584;SDS011;7180;52.742;11.420;2023-03-14T07:51:36;9.90;;;9.40;;
8584;SDS011;7180;52.742;11.420;2023-03-14T07:54:02;9.97;;;9.33;;
8584;SDS011;7180;52.742;11.420;2023-03-14T07:56:27;9.90;;;9.40;;
8584;SDS011;7180;52.742;11.420;2023-03-14T07:58:52;9.37;;;8.87;;
8584;SDS011;7180;52.742;11.420;2023-03-14T08:01:17;9.13;;;8.60;;
8584;SDS011;7180;52.742;11.420;2023-03-14T08:03:43;9.43;;;8.80;;
8584;SDS011;7180;52.742;11.420;2023-03-14T08:06:08;9.10;;;8.50;;
8584;SDS011;7180;52.742;11.420;2023-03-14T08:08:33;9.90;;;9.23;;
8584;SDS011;7180;52.742;11.420;2023-03-14T08:11:03;9.50;;;8.97;;
8584;SDS011;7180;52.742;11.420;2023-03-14T08:13:29;9.87;;;9.37;;
8584;SDS011;7180;52.742;11.420;2023-03-14T08:15:54;9.67;;;9.10;;
8584;SDS011;7180;52.742;11.420;2023-03-14T08:18:19;9.87;;;9.27;;
8584;SDS011;7180;52.742;11.420;2023-03-14T08:20:44;9.10;;;8.70;;
8584;SDS011;7180;52.742;11.420;2023-03-14T08:23:10;9.07;;;8.47;;
8584;SDS011;7180;52.742;11.420;2023-03-14T08:25:35;8.87;;;8.37;;
8584;SDS011;7180;52.742;11.420;2023-03-14T08:28:02;8.90;;;8.30;;
8584;SDS011;7180;52.742;11.420;2023-03-14T08:30:27;9.40;;;8.90;;
8584;SDS011;7180;52.742;11.420;2023-03-14T08:32:53;10.07;;;9.47;;
8584;SDS011;7180;52.742;11.420;2023-03-14T08:35:18;8.67;;;8.27;;
8584;SDS011;7180;52.742;11.420;2023-03-14T08:37:43;8.80;;;8.30;;
8584;SDS011;7180;52.742;11.420;2023-03-14T08:40:09;9.80;;;9.30;;
8584;SDS011;7180;52.742;11.420;2023-03-14T08:42:38;9.30;;;8.80;;
8584;SDS011;7180;52.742;11.420;2023-03-14T08:45:05;9.00;;;8.60;;
8584;SDS011;7180;52.742;11.420;2023-03-14T08:47:31;9.60;;;9.10;;
8584;SDS011;7180;52.742;11.420;2023-03-14T08:49:57;10.00;;;9.50;;
8584;SDS011;7180;52.742;11.420;2023-03-14T08:52:22;9.03;;;8.63;;
8584;SDS011;7180;52.742;11.420;2023-03-14T08:54:48;10.50;;;9.90;;
8584;SDS011;7180;52.742;11.420;2023-03-14T08:57:13;9.60;;;9.10;;
8584;SDS011;7180;52.742;11.420;2023-03-14T08:59:39;8.93;;;8.33;;
8584;SDS011;7180;52.742;11.420;2023-03-14T09:02:04;9.10;;;8.60;;
8584;SDS011;7180;52.742;11.420;2023-03-14T09:04:30;9.47;;;8.97;;
8584;SDS011;7180;52.742;11.420;2023-03-14T09:06:56;9.00;;;8.50;;
8584;SDS011;7180;52.742;11.420;2023-03-14T09:09:23;9.83;;;9.10;;
8584;SDS011;7180;52.742;11.420;2023-03-14T09:11:49;9.40;;;8.90;;
8584;SDS011;7180;52.742;11.420;2023-03-14T09:14:14;9.57;;;9.03;;
8584;SDS011;7180;52.742;11.420;2023-03-14T09:16:40;9.10;;;8.60;;
8584;SDS011;7180;52.742;11.420;2023-03-14T09:19:05;8.70;;;8.20;;
8584;SDS011;7180;52.742;11.420;2023-03-14T09:21:30;9.30;;;8.80;;
8584;SDS011;7180;52.742;11.420;2023-03-14T09:23:56;8.73;;;8.33;;
8584;SDS011;7180;52.742;11.420;2023-03-14T09:26:21;8.53;;;8.10;;
8584;SDS011;7180;52.742;11.420;2023-03-14T09:28:46;9.73;;;9.20;;
8584;SDS011;7180;52.742;11.420;2023-03-14T09:31:12;8.40;;;8.00;;
8584;SDS011;7180;52.742;11.420;2023-03-14T09:33:38;9.50;;;8.90;;
8584;SDS011;7180;52.742;11.420;2023-03-14T09:36:04;9.70;;;9.20;;
8584;SDS011;7180;52.742;11.420;2023-03-14T09:38:30;8.07;;;7.57;;
8584;SDS011;7180;52.742;11.420;2023-03-14T09:40:59;8.67;;;8.27;;
8584;SDS011;7180;52.742;11.420;2023-03-14T09:43:26;8.37;;;7.87;;
8584;SDS011;7180;52.742;11.420;2023-03-14T09:45:55;8.37;;;7.87;;
8584;SDS011;7180;52.742;11.420;2023-03-14T09:48:25;9.50;;;9.00;;
8584;SDS011;7180;52.742;11.420;2023-03-14T09:50:54;9.40;;;8.80;;
8584;SDS011;7180;52.742;11.420;2023-03-14T09:53:23;10.43;;;9.83;;
8584;SDS011;7180;52.742;11.420;2023-03-14T09:55:52;9.30;;;8.80;;
8584;SDS011;7180;52.742;11.420;2023-03-14T09:58:20;9.83;;;9.23;;
8584;SDS011;7180;52.742;11.420;2023-03-14T10:00:48;9.23;;;8.73;;
8584;SDS011;7180;52.742;11.420;2023-03-14T10:05:49;9.33;;;8.83;;
8584;SDS011;7180;52.742;11.420;2023-03-14T10:08:14;9.27;;;8.77;;
8584;SDS011;7180;52.742;11.420;2023-03-14T10:10:40;9.70;;;9.20;;
8584;SDS011;7180;52.742;11.420;2023-03-14T10:15:42;10.00;;;9.40;;
8584;SDS011;7180;52.742;11.420;2023-03-14T10:18:13;9.90;;;9.40;;
8584;SDS011;7180;52.742;11.420;2023-03-14T10:20:46;9.50;;;8.97;;
8584;SDS011;7180;52.742;11.420;2023-03-14T10:25:45;10.00;;;9.50;;
8584;SDS011;7180;52.742;11.420;2023-03-14T10:28:23;9.50;;;9.00;;
8584;SDS011;7180;52.742;11.420;2023-03-14T10:31:08;9.60;;;9.13;;
8584;SDS011;7180;52.742;11.420;2023-03-14T10:34:00;9.50;;;9.00;;
8584;SDS011;7180;52.742;11.420;2023-03-14T10:36:27;9.87;;;9.27;;
8584;SDS011;7180;52.742;11.420;2023-03-14T10:38:57;9.60;;;9.10;;
8584;SDS011;7180;52.742;11.420;2023-03-14T10:41:46;9.50;;;9.00;;
8584;SDS011;7180;52.742;11.420;2023-03-14T10:44:12;9.20;;;8.70;;
8584;SDS011;7180;52.742;11.420;2023-03-14T10:46:40;9.70;;;9.20;;
8584;SDS011;7180;52.742;11.420;2023-03-14T10:49:06;9.20;;;8.70;;
8584;SDS011;7180;52.742;11.420;2023-03-14T10:51:31;8.90;;;8.50;;
8584;SDS011;7180;52.742;11.420;2023-03-14T10:54:03;9.60;;;9.20;;
8584;SDS011;7180;52.742;11.420;2023-03-14T10:56:43;9.33;;;8.83;;
8584;SDS011;7180;52.742;11.420;2023-03-14T10:59:12;9.80;;;9.30;;
8584;SDS011;7180;52.742;11.420;2023-03-14T11:01:52;8.90;;;8.50;;
8584;SDS011;7180;52.742;11.420;2023-03-14T11:07:16;8.73;;;8.30;;
8584;SDS011;7180;52.742;11.420;2023-03-14T11:23:49;10.03;;;9.53;;
8584;SDS011;7180;52.742;11.420;2023-03-14T11:31:44;8.70;;;8.20;;
8584;SDS011;7180;52.742;11.420;2023-03-14T11:34:19;9.20;;;8.80;;
8584;SDS011;7180;52.742;11.420;2023-03-14T11:37:11;9.03;;;8.53;;
8584;SDS011;7180;52.742;11.420;2023-03-14T11:39:45;9.03;;;8.63;;
8584;SDS011;7180;52.742;11.420;2023-03-14T11:42:16;9.43;;;9.03;;
8584;SDS011;7180;52.742;11.420;2023-03-14T11:44:43;9.27;;;8.87;;
8584;SDS011;7180;52.742;11.420;2023-03-14T11:47:14;9.63;;;9.20;;
8584;SDS011;7180;52.742;11.420;2023-03-14T11:49:51;8.47;;;7.97;;
8584;SDS011;7180;52.742;11.420;2023-03-14T11:52:23;8.17;;;7.77;;
8584;SDS011;7180;52.742;11.420;2023-03-14T11:55:05;9.50;;;9.00;;
8584;SDS011;7180;52.742;11.420;2023-03-14T11:57:35;9.30;;;8.80;;
8584;SDS011;7180;52.742;11.420;2023-03-14T12:02:48;9.23;;;8.73;;
8584;SDS011;7180;52.742;11.420;2023-03-14T12:05:30;9.70;;;9.30;;
8584;SDS011;7180;52.742;11.420;2023-03-14T12:13:11;8.67;;;8.17;;
8584;SDS011;7180;52.742;11.420;2023-03-14T12:15:40;10.00;;;9.50;;
8584;SDS011;7180;52.742;11.420;2023-03-14T12:18:21;9.50;;;9.00;;
8584;SDS011;7180;52.742;11.420;2023-03-14T12:20:54;9.77;;;9.10;;
8584;SDS011;7180;52.742;11.420;2023-03-14T12:23:22;8.90;;;8.50;;
8584;SDS011;7180;52.742;11.420;2023-03-14T12:25:58;9.40;;;8.90;;
8584;SDS011;7180;52.742;11.420;2023-03-14T12:42:02;9.20;;;8.70;;
8584;SDS011;7180;52.742;11.420;2023-03-14T12:49:43;9.47;;;8.97;;
8584;SDS011;7180;52.742;11.420;2023-03-14T12:52:19;8.50;;;8.10;;
8584;SDS011;7180;52.742;11.420;2023-03-14T12:57:39;8.97;;;8.57;;
8584;SDS011;7180;52.742;11.420;2023-03-14T13:03:20;12.47;;;11.87;;
8584;SDS011;7180;52.742;11.420;2023-03-14T13:06:01;13.17;;;12.47;;
8584;SDS011;7180;52.742;11.420;2023-03-14T13:08:42;14.50;;;13.67;;
8584;SDS011;7180;52.742;11.420;2023-03-14T13:11:18;13.77;;;13.07;;
8584;SDS011;7180;52.742;11.420;2023-03-14T13:13:45;12.50;;;11.90;;
8584;SDS011;7180;52.742;11.420;2023-03-14T13:16:15;13.00;;;12.30;;
8584;SDS011;7180;52.742;11.420;2023-03-14T13:18:45;12.93;;;12.33;;
8584;SDS011;7180;52.742;11.420;2023-03-14T13:21:13;13.13;;;12.43;;
8584;SDS011;7180;52.742;11.420;2023-03-14T13:23:42;13.60;;;12.70;;
8584;SDS011;7180;52.742;11.420;2023-03-14T13:26:34;12.67;;;12.07;;
8584;SDS011;7180;52.742;11.420;2023-03-14T13:29:08;14.47;;;13.77;;
8584;SDS011;7180;52.742;11.420;2023-03-14T13:31:39;16.17;;;15.17;;
8584;SDS011;7180;52.742;11.420;2023-03-14T13:34:09;15.33;;;14.53;;
8584;SDS011;7180;52.742;11.420;2023-03-14T13:36:35;17.30;;;16.40;;
8584;SDS011;7180;52.742;11.420;2023-03-14T13:39:01;18.37;;;17.37;;
8584;SDS011;7180;52.742;11.420;2023-03-14T13:41:27;18.20;;;17.20;;
8584;SDS011;7180;52.742;11.420;2023-03-14T13:43:57;18.53;;;17.47;;
8584;SDS011;7180;52.742;11.420;2023-03-14T13:46:27;19.20;;;18.10;;
8584;SDS011;7180;52.742;11.420;2023-03-14T13:48:54;18.00;;;17.00;;
8584;SDS011;7180;52.742;11.420;2023-03-14T13:51:22;18.23;;;17.23;;
8584;SDS011;7180;52.742;11.420;2023-03-14T13:53:54;18.07;;;17.07;;
8584;SDS011;7180;52.742;11.420;2023-03-14T13:56:24;17.60;;;16.60;;
8584;SDS011;7180;52.742;11.420;2023-03-14T13:58:51;18.13;;;17.03;;
8584;SDS011;7180;52.742;11.420;2023-03-14T14:01:27;16.83;;;15.93;;
8584;SDS011;7180;52.742;11.420;2023-03-14T14:03:56;17.47;;;16.47;;
8584;SDS011;7180;52.742;11.420;2023-03-14T14:06:33;17.27;;;16.17;;
8584;SDS011;7180;52.742;11.420;2023-03-14T14:09:01;17.10;;;16.10;;
8584;SDS011;7180;52.742;11.420;2023-03-14T14:11:41;17.77;;;16.67;;
8584;SDS011;7180;52.742;11.420;2023-03-14T14:14:10;15.33;;;14.47;;
8584;SDS011;7180;52.742;11.420;2023-03-14T14:16:41;16.67;;;15.77;;
8584;SDS011;7180;52.742;11.420;2023-03-14T14:19:07;19.77;;;18.47;;
8584;SDS011;7180;52.742;11.420;2023-03-14T14:21:33;17.93;;;16.73;;
8584;SDS011;7180;52.742;11.420;2023-03-14T14:23:58;17.97;;;16.83;;
8584;SDS011;7180;52.742;11.420;2023-03-14T14:26:25;18.20;;;17.10;;
8584;SDS011;7180;52.742;11.420;2023-03-14T14:29:01;16.90;;;15.83;;
8584;SDS011;7180;52.742;11.420;2023-03-14T14:31:30;19.13;;;17.90;;
8584;SDS011;7180;52.742;11.420;2023-03-14T14:33:57;17.37;;;16.20;;
8584;SDS011;7180;52.742;11.420;2023-03-14T14:36:27;15.80;;;14.80;;
8584;SDS011;7180;52.742;11.420;2023-03-14T14:41:48;17.73;;;16.53;;
8584;SDS011;7180;52.742;11.420;2023-03-14T14:44:17;16.70;;;15.80;;
8584;SDS011;7180;52.742;11.420;2023-03-14T14:46:51;16.83;;;15.93;;
8584;SDS011;7180;52.742;11.420;2023-03-14T14:49:18;16.87;;;15.83;;
8584;SDS011;7180;52.742;11.420;2023-03-14T14:51:47;16.03;;;15.03;;
8584;SDS011;7180;52.742;11.420;2023-03-14T14:54:15;15.53;;;14.30;;
8584;SDS011;7180;52.742;11.420;2023-03-14T14:56:51;15.90;;;14.80;;
8584;SDS011;7180;52.742;11.420;2023-03-14T14:59:27;17.20;;;16.00;;
8584;SDS011;7180;52.742;11.420;2023-03-14T15:01:58;17.13;;;15.93;;
8584;SDS011;7180;52.742;11.420;2023-03-14T15:04:25;16.53;;;15.27;;
8584;SDS011;7180;52.742;11.420;2023-03-14T15:06:52;15.63;;;14.53;;
8584;SDS011;7180;52.742;11.420;2023-03-14T15:09:18;14.90;;;13.87;;
8584;SDS011;7180;52.742;11.420;2023-03-14T15:11:44;14.80;;;13.60;;
8584;SDS011;7180;52.742;11.420;2023-03-14T15:14:10;13.80;;;13.00;;
8584;SDS011;7180;52.742;11.420;2023-03-14T15:16:36;12.77;;;11.77;;
8584;SDS011;7180;52.742;11.420;2023-03-14T15:19:02;12.70;;;12.00;;
8584;SDS011;7180;52.742;11.420;2023-03-14T15:21:31;12.70;;;11.60;;
8584;SDS011;7180;52.742;11.420;2023-03-14T15:23:56;12.60;;;11.70;;
8584;SDS011;7180;52.742;11.420;2023-03-14T15:26:23;12.20;;;11.50;;
8584;SDS011;7180;52.742;11.420;2023-03-14T15:28:50;13.13;;;12.00;;
8584;SDS011;7180;52.742;11.420;2023-03-14T15:31:16;11.93;;;11.03;;
8584;SDS011;7180;52.742;11.420;2023-03-14T15:33:43;11.67;;;10.87;;
8584;SDS011;7180;52.742;11.420;2023-03-14T15:36:19;11.50;;;10.70;;
8584;SDS011;7180;52.742;11.420;2023-03-14T15:38:50;11.80;;;11.03;;
8584;SDS011;7180;52.742;11.420;2023-03-14T15:41:17;12.20;;;11.10;;
8584;SDS011;7180;52.742;11.420;2023-03-14T15:43:43;12.07;;;11.03;;
8584;SDS011;7180;52.742;11.420;2023-03-14T15:46:09;13.37;;;12.10;;
8584;SDS011;7180;52.742;11.420;2023-03-14T15:48:35;13.07;;;12.17;;
8584;SDS011;7180;52.742;11.420;2023-03-14T15:51:00;13.10;;;12.10;;
8584;SDS011;7180;52.742;11.420;2023-03-14T15:53:26;13.37;;;12.17;;
8584;SDS011;7180;52.742;11.420;2023-03-14T15:55:51;12.83;;;11.63;;
8584;SDS011;7180;52.742;11.420;2023-03-14T15:58:17;12.50;;;11.27;;